x

Isle Of Shoals, Nh (iosn3) Weather Station

4:00am - Sat 23rd Sep 2017 All times are EDT. -4 hours from GMT.

  • Wind
    16mph, 18mph gusts
  • Air Temp 61°f
  • Sea Pressure 1015.7mb
  • Isle Of Shoals, Nh
  • Isle Of Shoals, Nh

More Historic Weather Station data

Upgrade to MSW Pro to gain access to the past 30 days of data for over 8000 Wavebouys and Weather Stations around the globe.

Join

Comparision Forecast

View Surf forecast
   
Sat 09/23 4:00am 16 18 mph 1015.7mb 61f
3:00am 20 23 mph 1016.1mb 62f
2:00am 23 25 mph 1016.1mb 62f
1:00am 20 22 mph 1016.2mb 61f
12:00am 20 22 mph 1016.6mb 61f
Fri 09/22 11:00pm 17 18 mph 1017mb 61f
10:00pm 21 23 mph 1016.4mb 61f
9:00pm 26 31 mph 1016.1mb 61f
8:00pm 25 26 mph 1016.3mb 61f
7:00pm 22 26 mph 1016.2mb 60f
6:00pm 25 30 mph 1016.2mb 59f
5:00pm 29 36 mph 1016.1mb 61f
4:00pm 25 28 mph 1016.2mb 62f
3:00pm 24 28 mph 1016.1mb 61f
2:00pm 28 31 mph 1016.3mb 60f
1:00pm 31 33 mph 1016.8mb 59f
12:00pm 38 41 mph 1016.5mb 59f
11:00am 32 37 mph 1017.1mb 58f
10:00am 33 38 mph 1017.1mb 59f
9:00am 34 40 mph 1016.9mb 58f
8:00am 31 38 mph 1016.9mb 59f
7:00am 33 38 mph 1016.6mb 60f
6:00am 32 37 mph 1016.3mb 60f
5:00am 28 32 mph 1016.3mb 60f
4:00am 31 34 mph 1016.2mb 60f
3:00am 29 32 mph 1016.5mb 59f
2:00am 33 40 mph 1016.7mb 62f
1:00am 30 34 mph 1017.3mb 63f
12:00am 28 31 mph 1017.2mb 63f
Thu 09/21 11:00pm 22 24 mph 1017.4mb 62f
10:00pm 24 28 mph 1017.6mb 62f
9:00pm 22 24 mph 1017.3mb 62f
8:00pm 21 23 mph 1017mb 64f
7:00pm 15 16 mph 1016.7mb 62f
6:00pm 20 22 mph 1016.2mb 64f
5:00pm 22 25 mph 1016.3mb 65f
4:00pm 21 25 mph 1016.3mb 65f
3:00pm 22 25 mph 1016.3mb 65f
2:00pm 22 28 mph 1016.4mb 66f
1:00pm 25 29 mph 1016.5mb 65f
12:00pm 26 30 mph 1016.8mb 64f
11:00am 32 38 mph 1016.7mb 65f
10:00am 30 33 mph 1016.5mb 64f
9:00am 25 29 mph 1016mb 64f
8:00am 25 30 mph 1015.4mb 65f
7:00am 26 32 mph 1014.6mb 65f
6:00am 28 31 mph 1013.6mb 65f
5:00am 29 34 mph 1013.1mb 67f
4:00am 26 29 mph 1012.7mb 67f
3:00am 25 29 mph 1012.5mb 66f
2:00am 29 32 mph 1012.5mb 67f
1:00am 30 33 mph 1012.2mb 68f
12:00am 28 31 mph 1012.3mb 68f
Wed 09/20 11:00pm 25 29 mph 1012.3mb 68f
10:00pm 25 28 mph 1012.1mb 69f
9:00pm 18 22 mph 1011.9mb 66f
8:00pm 18 21 mph 1012mb 65f
7:00pm 17 20 mph 1011.9mb 67f
6:00pm 21 22 mph 1011.8mb 68f
5:00pm 24 26 mph 1011.6mb 68f
4:00pm 23 25 mph 1011.8mb 65f
3:00pm 25 28 mph 1011.7mb 65f
2:00pm 26 30 mph 1012mb 65f
1:00pm 25 29 mph 1012.3mb 64f
12:00pm 24 26 mph 1012.8mb 64f
11:00am 26 29 mph 1012.8mb 63f
10:00am 23 29 mph 1013.4mb 63f
9:00am 26 30 mph 1013.1mb 63f
8:00am 26 29 mph 1013mb 64f
7:00am 26 29 mph 1013.1mb 63f
6:00am 25 29 mph 1013.2mb 63f
5:00am 24 28 mph 1013mb 63f
4:00am 26 30 mph 1013mb 63f
3:00am 28 32 mph 1013.7mb 62f
2:00am 26 30 mph 1014.3mb 62f
1:00am 25 29 mph 1014.8mb 61f
12:00am 24 29 mph 1015.3mb 61f
Tue 09/19 11:00pm 24 29 mph 1015.8mb 61f
10:00pm 23 25 mph 1016.4mb 61f
9:00pm 24 26 mph 1016.4mb 61f
8:00pm 25 28 mph 1016.5mb 61f
7:00pm 24 26 mph 1016.5mb 61f
6:00pm 22 23 mph 1016.9mb 60f
5:00pm 20 22 mph 1017.3mb 60f
4:00pm 21 24 mph 1017.3mb 61f
3:00pm 21 24 mph 1017.7mb 61f
2:00pm 26 30 mph 1017.5mb 60f
1:00pm 20 21 mph 1019.2mb 60f
12:00pm 23 26 mph 1019.6mb 60f
11:00am 22 23 mph 1020.2mb 61f
10:00am 21 22 mph 1020.5mb 60f